sensor_id;sensor_type;location;lat;lon;timestamp;pressure;altitude;pressure_sealevel;temperature;humidity
70206;BME280;57593;55.896;37.396;2022-10-23T00:00:23;99471.22;;;6.87;100.00
70206;BME280;57593;55.896;37.396;2022-10-23T00:00:53;99463.66;;;6.86;100.00
70206;BME280;57593;55.896;37.396;2022-10-23T00:01:27;99457.50;;;6.90;100.00
70206;BME280;57593;55.896;37.396;2022-10-23T00:01:59;99462.16;;;6.93;100.00
70206;BME280;57593;55.896;37.396;2022-10-23T00:02:31;99469.88;;;6.90;100.00
70206;BME280;57593;55.896;37.396;2022-10-23T00:03:02;99470.16;;;6.88;100.00
70206;BME280;57593;55.896;37.396;2022-10-23T00:03:33;99464.44;;;6.86;100.00
70206;BME280;57593;55.896;37.396;2022-10-23T00:04:11;99456.34;;;6.74;100.00
70206;BME280;57593;55.896;37.396;2022-10-23T00:04:42;99461.59;;;6.74;100.00
70206;BME280;57593;55.896;37.396;2022-10-23T00:05:13;99457.72;;;6.71;100.00
70206;BME280;57593;55.896;37.396;2022-10-23T00:05:43;99457.25;;;6.69;100.00
70206;BME280;57593;55.896;37.396;2022-10-23T00:06:14;99457.72;;;6.71;100.00
70206;BME280;57593;55.896;37.396;2022-10-23T00:06:45;99458.97;;;6.74;100.00
70206;BME280;57593;55.896;37.396;2022-10-23T00:07:17;99464.88;;;6.79;100.00
70206;BME280;57593;55.896;37.396;2022-10-23T00:07:52;99462.56;;;6.78;100.00
70206;BME280;57593;55.896;37.396;2022-10-23T00:08:23;99464.53;;;6.72;100.00
70206;BME280;57593;55.896;37.396;2022-10-23T00:08:54;99461.16;;;6.80;100.00
70206;BME280;57593;55.896;37.396;2022-10-23T00:09:25;99446.84;;;6.87;100.00
70206;BME280;57593;55.896;37.396;2022-10-23T00:09:56;99448.84;;;6.81;100.00
70206;BME280;57593;55.896;37.396;2022-10-23T00:10:27;99450.22;;;6.78;100.00
70206;BME280;57593;55.896;37.396;2022-10-23T00:10:58;99449.31;;;6.92;100.00
70206;BME280;57593;55.896;37.396;2022-10-23T00:11:29;99454.56;;;6.92;100.00
70206;BME280;57593;55.896;37.396;2022-10-23T00:12:00;99455.00;;;6.85;100.00
70206;BME280;57593;55.896;37.396;2022-10-23T00:12:31;99461.03;;;6.86;100.00
70206;BME280;57593;55.896;37.396;2022-10-23T00:13:02;99459.03;;;6.82;100.00
70206;BME280;57593;55.896;37.396;2022-10-23T00:13:32;99456.53;;;6.77;100.00
70206;BME280;57593;55.896;37.396;2022-10-23T00:14:05;99456.72;;;6.81;100.00
70206;BME280;57593;55.896;37.396;2022-10-23T00:14:36;99454.09;;;6.90;100.00
70206;BME280;57593;55.896;37.396;2022-10-23T00:15:07;99448.41;;;6.88;100.00
70206;BME280;57593;55.896;37.396;2022-10-23T00:15:38;99446.38;;;6.84;100.00
70206;BME280;57593;55.896;37.396;2022-10-23T00:16:09;99455.16;;;6.80;100.00
70206;BME280;57593;55.896;37.396;2022-10-23T00:16:39;99454.72;;;6.87;100.00
70206;BME280;57593;55.896;37.396;2022-10-23T00:17:10;99447.19;;;6.94;100.00
70206;BME280;57593;55.896;37.396;2022-10-23T00:17:41;99449.97;;;6.97;100.00
70206;BME280;57593;55.896;37.396;2022-10-23T00:18:12;99442.41;;;6.96;100.00
70206;BME280;57593;55.896;37.396;2022-10-23T00:18:42;99451.66;;;6.93;100.00
70206;BME280;57593;55.896;37.396;2022-10-23T00:19:15;99453.03;;;6.91;100.00
70206;BME280;57593;55.896;37.396;2022-10-23T00:19:45;99443.00;;;6.93;100.00
70206;BME280;57593;55.896;37.396;2022-10-23T00:20:16;99447.94;;;6.94;100.00
70206;BME280;57593;55.896;37.396;2022-10-23T00:20:47;99446.88;;;6.95;100.00
70206;BME280;57593;55.896;37.396;2022-10-23T00:21:18;99449.03;;;6.93;100.00
70206;BME280;57593;55.896;37.396;2022-10-23T00:21:49;99443.97;;;6.97;100.00
70206;BME280;57593;55.896;37.396;2022-10-23T00:22:19;99444.88;;;6.92;100.00
70206;BME280;57593;55.896;37.396;2022-10-23T00:22:50;99449.81;;;6.94;100.00
70206;BME280;57593;55.896;37.396;2022-10-23T00:23:21;99442.69;;;6.94;100.00
70206;BME280;57593;55.896;37.396;2022-10-23T00:23:51;99451.47;;;6.90;100.00
70206;BME280;57593;55.896;37.396;2022-10-23T00:24:22;99442.41;;;6.96;100.00
70206;BME280;57593;55.896;37.396;2022-10-23T00:24:53;99448.91;;;6.98;100.00
70206;BME280;57593;55.896;37.396;2022-10-23T00:25:23;99448.00;;;7.03;100.00
70206;BME280;57593;55.896;37.396;2022-10-23T00:25:54;99443.50;;;7.04;100.00
70206;BME280;57593;55.896;37.396;2022-10-23T00:26:25;99440.41;;;7.01;100.00
70206;BME280;57593;55.896;37.396;2022-10-23T00:26:55;99443.97;;;6.97;100.00
70206;BME280;57593;55.896;37.396;2022-10-23T00:27:26;99434.22;;;6.97;100.00
70206;BME280;57593;55.896;37.396;2022-10-23T00:27:56;99436.78;;;6.89;100.00
70206;BME280;57593;55.896;37.396;2022-10-23T00:28:27;99435.44;;;6.91;100.00
70206;BME280;57593;55.896;37.396;2022-10-23T00:28:58;99434.53;;;6.96;100.00
70206;BME280;57593;55.896;37.396;2022-10-23T00:29:29;99437.44;;;6.94;100.00
70206;BME280;57593;55.896;37.396;2022-10-23T00:30:00;99436.09;;;6.97;100.00
70206;BME280;57593;55.896;37.396;2022-10-23T00:30:30;99438.88;;;7.00;100.00
70206;BME280;57593;55.896;37.396;2022-10-23T00:31:02;99434.66;;;6.91;100.00
70206;BME280;57593;55.896;37.396;2022-10-23T00:31:33;99430.81;;;6.97;100.00
70206;BME280;57593;55.896;37.396;2022-10-23T00:32:04;99425.72;;;7.00;100.00
70206;BME280;57593;55.896;37.396;2022-10-23T00:32:35;99432.97;;;6.95;100.00
70206;BME280;57593;55.896;37.396;2022-10-23T00:33:05;99429.91;;;7.01;100.00
70206;BME280;57593;55.896;37.396;2022-10-23T00:33:36;99429.28;;;6.96;100.00
70206;BME280;57593;55.896;37.396;2022-10-23T00:34:07;99428.63;;;6.90;100.00
70206;BME280;57593;55.896;37.396;2022-10-23T00:34:38;99424.47;;;6.98;100.00
70206;BME280;57593;55.896;37.396;2022-10-23T00:35:10;99427.59;;;7.00;100.00
70206;BME280;57593;55.896;37.396;2022-10-23T00:35:41;99426.00;;;6.90;100.00
70206;BME280;57593;55.896;37.396;2022-10-23T00:36:14;99418.75;;;6.96;100.00
70206;BME280;57593;55.896;37.396;2022-10-23T00:36:47;99423.09;;;7.00;100.00
70206;BME280;57593;55.896;37.396;2022-10-23T00:37:18;99420.78;;;6.99;100.00
70206;BME280;57593;55.896;37.396;2022-10-23T00:37:49;99421.69;;;6.94;100.00
70206;BME280;57593;55.896;37.396;2022-10-23T00:38:19;99422.94;;;6.97;100.00
70206;BME280;57593;55.896;37.396;2022-10-23T00:38:51;99417.25;;;7.04;100.00
70206;BME280;57593;55.896;37.396;2022-10-23T00:39:21;99409.63;;;6.93;100.00
70206;BME280;57593;55.896;37.396;2022-10-23T00:39:52;99419.53;;;6.96;100.00
70206;BME280;57593;55.896;37.396;2022-10-23T00:40:23;99414.56;;;6.86;100.00
70206;BME280;57593;55.896;37.396;2022-10-23T00:40:53;99416.59;;;6.98;100.00
70206;BME280;57593;55.896;37.396;2022-10-23T00:41:27;99420.44;;;6.92;100.00
70206;BME280;57593;55.896;37.396;2022-10-23T00:41:58;99414.88;;;6.84;100.00
70206;BME280;57593;55.896;37.396;2022-10-23T00:42:29;99413.31;;;6.83;100.00
70206;BME280;57593;55.896;37.396;2022-10-23T00:43:00;99413.75;;;6.77;100.00
70206;BME280;57593;55.896;37.396;2022-10-23T00:43:31;99419.16;;;6.80;100.00
70206;BME280;57593;55.896;37.396;2022-10-23T00:44:08;99412.84;;;6.81;100.00
70206;BME280;57593;55.896;37.396;2022-10-23T00:45:46;99414.25;;;6.88;100.00
70206;BME280;57593;55.896;37.396;2022-10-23T00:46:17;99410.72;;;6.92;100.00
70206;BME280;57593;55.896;37.396;2022-10-23T00:46:47;99419.03;;;6.86;100.00
70206;BME280;57593;55.896;37.396;2022-10-23T00:47:18;99415.00;;;6.79;100.00
70206;BME280;57593;55.896;37.396;2022-10-23T00:47:49;99417.03;;;6.82;100.00
70206;BME280;57593;55.896;37.396;2022-10-23T00:48:20;99408.38;;;6.82;100.00
70206;BME280;57593;55.896;37.396;2022-10-23T00:48:50;99409.94;;;6.83;100.00
70206;BME280;57593;55.896;37.396;2022-10-23T00:49:21;99418.69;;;6.78;100.00
70206;BME280;57593;55.896;37.396;2022-10-23T00:49:52;99413.16;;;6.80;100.00
70206;BME280;57593;55.896;37.396;2022-10-23T00:50:24;99413.91;;;6.72;100.00
70206;BME280;57593;55.896;37.396;2022-10-23T00:50:55;99410.66;;;6.75;100.00
70206;BME280;57593;55.896;37.396;2022-10-23T00:51:32;99406.34;;;6.79;100.00
70206;BME280;57593;55.896;37.396;2022-10-23T00:52:06;99409.25;;;6.69;100.00
70206;BME280;57593;55.896;37.396;2022-10-23T00:52:41;99401.84;;;6.71;100.00
70206;BME280;57593;55.896;37.396;2022-10-23T00:53:14;99401.78;;;6.62;100.00
70206;BME280;57593;55.896;37.396;2022-10-23T00:53:48;99402.91;;;6.70;100.00
70206;BME280;57593;55.896;37.396;2022-10-23T00:54:22;99404.31;;;6.67;100.00
70206;BME280;57593;55.896;37.396;2022-10-23T00:54:54;99404.75;;;6.69;100.00
70206;BME280;57593;55.896;37.396;2022-10-23T00:55:26;99402.91;;;6.70;100.00
70206;BME280;57593;55.896;37.396;2022-10-23T00:55:57;99401.97;;;6.65;100.00
70206;BME280;57593;55.896;37.396;2022-10-23T00:56:30;99394.72;;;6.71;100.00
70206;BME280;57593;55.896;37.396;2022-10-23T00:57:05;99394.53;;;6.59;100.00
70206;BME280;57593;55.896;37.396;2022-10-23T00:57:41;99394.09;;;6.65;100.00
70206;BME280;57593;55.896;37.396;2022-10-23T00:58:14;99399.78;;;6.59;100.00
70206;BME280;57593;55.896;37.396;2022-10-23T00:58:44;99398.25;;;6.66;100.00
70206;BME280;57593;55.896;37.396;2022-10-23T00:59:15;99392.25;;;6.66;100.00
70206;BME280;57593;55.896;37.396;2022-10-23T00:59:46;99395.47;;;6.63;100.00
70206;BME280;57593;55.896;37.396;2022-10-23T01:00:25;99394.53;;;6.59;100.00
70206;BME280;57593;55.896;37.396;2022-10-23T01:00:56;99382.91;;;6.51;100.00
70206;BME280;57593;55.896;37.396;2022-10-23T01:01:27;99403.72;;;6.47;100.00
70206;BME280;57593;55.896;37.396;2022-10-23T01:01:58;99394.66;;;6.54;100.00
70206;BME280;57593;55.896;37.396;2022-10-23T01:02:30;99385.53;;;6.51;100.00
70206;BME280;57593;55.896;37.396;2022-10-23T01:03:01;99389.56;;;6.48;100.00
70206;BME280;57593;55.896;37.396;2022-10-23T01:03:33;99396.03;;;6.51;100.00
70206;BME280;57593;55.896;37.396;2022-10-23T01:04:05;99392.03;;;6.54;100.00
70206;BME280;57593;55.896;37.396;2022-10-23T01:04:36;99396.31;;;6.50;100.00
70206;BME280;57593;55.896;37.396;2022-10-23T01:05:08;99392.78;;;6.45;100.00
70206;BME280;57593;55.896;37.396;2022-10-23T01:05:49;99391.38;;;6.48;100.00
70206;BME280;57593;55.896;37.396;2022-10-23T01:08:50;99394.97;;;6.52;100.00
70206;BME280;57593;55.896;37.396;2022-10-23T01:09:27;99387.22;;;6.47;100.00
70206;BME280;57593;55.896;37.396;2022-10-23T01:10:43;99393.78;;;6.36;100.00
70206;BME280;57593;55.896;37.396;2022-10-23T01:11:23;99395.03;;;6.38;100.00
70206;BME280;57593;55.896;37.396;2022-10-23T01:13:43;99390.63;;;6.47;100.00
70206;BME280;57593;55.896;37.396;2022-10-23T01:15:03;99389.19;;;6.41;100.00
70206;BME280;57593;55.896;37.396;2022-10-23T01:15:52;99390.56;;;6.39;100.00
70206;BME280;57593;55.896;37.396;2022-10-23T01:18:17;99389.34;;;6.36;100.00
70206;BME280;57593;55.896;37.396;2022-10-23T01:20:57;99391.16;;;6.36;100.00
70206;BME280;57593;55.896;37.396;2022-10-23T01:23:41;99387.75;;;6.26;100.00
70206;BME280;57593;55.896;37.396;2022-10-23T01:25:22;99384.22;;;6.31;100.00
70206;BME280;57593;55.896;37.396;2022-10-23T01:26:14;99385.88;;;6.27;100.00
70206;BME280;57593;55.896;37.396;2022-10-23T01:27:41;99387.75;;;6.26;100.00
70206;BME280;57593;55.896;37.396;2022-10-23T01:29:37;99382.19;;;6.28;100.00
70206;BME280;57593;55.896;37.396;2022-10-23T01:30:13;99383.72;;;6.29;100.00
70206;BME280;57593;55.896;37.396;2022-10-23T01:30:48;99387.44;;;6.28;100.00
70206;BME280;57593;55.896;37.396;2022-10-23T01:32:00;99380.03;;;6.30;100.00
70206;BME280;57593;55.896;37.396;2022-10-23T01:32:41;99383.38;;;6.22;100.00
70206;BME280;57593;55.896;37.396;2022-10-23T01:33:14;99383.84;;;6.24;100.00
70206;BME280;57593;55.896;37.396;2022-10-23T01:33:57;99382.31;;;6.23;100.00
70206;BME280;57593;55.896;37.396;2022-10-23T01:34:38;99386.25;;;6.11;100.00
70206;BME280;57593;55.896;37.396;2022-10-23T01:35:23;99380.53;;;6.09;100.00
70206;BME280;57593;55.896;37.396;2022-10-23T01:36:04;99386.38;;;6.06;100.00
70206;BME280;57593;55.896;37.396;2022-10-23T01:36:38;99385.28;;;6.07;100.00
70206;BME280;57593;55.896;37.396;2022-10-23T01:37:12;99384.69;;;6.10;100.00
70206;BME280;57593;55.896;37.396;2022-10-23T01:37:50;99378.22;;;6.08;100.00
70206;BME280;57593;55.896;37.396;2022-10-23T01:38:30;99382.66;;;6.07;100.00
70206;BME280;57593;55.896;37.396;2022-10-23T01:39:19;99377.56;;;6.02;100.00
70206;BME280;57593;55.896;37.396;2022-10-23T01:39:54;99374.94;;;6.02;100.00
70206;BME280;57593;55.896;37.396;2022-10-23T01:40:31;99375.88;;;6.06;100.00
70206;BME280;57593;55.896;37.396;2022-10-23T01:41:28;99368.53;;;5.94;100.00
70206;BME280;57593;55.896;37.396;2022-10-23T01:42:08;99380.38;;;5.92;100.00
70206;BME280;57593;55.896;37.396;2022-10-23T01:42:43;99382.81;;;5.88;100.00
70206;BME280;57593;55.896;37.396;2022-10-23T01:43:25;99378.28;;;5.80;100.00
70206;BME280;57593;55.896;37.396;2022-10-23T01:44:54;99376.09;;;5.73;100.00
70206;BME280;57593;55.896;37.396;2022-10-23T01:45:38;99379.59;;;5.69;100.00
70206;BME280;57593;55.896;37.396;2022-10-23T01:46:15;99376.28;;;5.77;100.00
70206;BME280;57593;55.896;37.396;2022-10-23T01:46:47;99375.97;;;5.79;100.00
70206;BME280;57593;55.896;37.396;2022-10-23T01:47:23;99378.28;;;5.80;100.00
70206;BME280;57593;55.896;37.396;2022-10-23T01:48:12;99370.72;;;5.79;100.00
70206;BME280;57593;55.896;37.396;2022-10-23T01:48:52;99377.75;;;5.69;100.00
70206;BME280;57593;55.896;37.396;2022-10-23T01:49:23;99372.81;;;5.68;100.00
70206;BME280;57593;55.896;37.396;2022-10-23T01:49:58;99369.28;;;5.72;100.00
70206;BME280;57593;55.896;37.396;2022-10-23T01:50:32;99377.16;;;5.72;100.00
70206;BME280;57593;55.896;37.396;2022-10-23T01:51:08;99378.81;;;5.68;100.00
70206;BME280;57593;55.896;37.396;2022-10-23T01:51:45;99369.28;;;5.72;100.00
70206;BME280;57593;55.896;37.396;2022-10-23T01:52:18;99372.38;;;5.74;100.00
70206;BME280;57593;55.896;37.396;2022-10-23T01:52:52;99371.91;;;5.72;100.00
70206;BME280;57593;55.896;37.396;2022-10-23T01:53:25;99367.25;;;5.69;100.00
70206;BME280;57593;55.896;37.396;2022-10-23T01:53:58;99365.94;;;5.58;100.00
70206;BME280;57593;55.896;37.396;2022-10-23T01:54:32;99371.19;;;5.58;100.00
70206;BME280;57593;55.896;37.396;2022-10-23T01:55:05;99367.69;;;5.63;100.00
70206;BME280;57593;55.896;37.396;2022-10-23T01:55:40;99367.38;;;5.64;100.00
70206;BME280;57593;55.896;37.396;2022-10-23T01:56:22;99369.81;;;5.61;100.00
70206;BME280;57593;55.896;37.396;2022-10-23T01:56:56;99366.88;;;5.62;100.00
70206;BME280;57593;55.896;37.396;2022-10-23T01:57:31;99364.09;;;5.58;100.00
70206;BME280;57593;55.896;37.396;2022-10-23T01:58:05;99361.66;;;5.62;100.00
70206;BME280;57593;55.896;37.396;2022-10-23T01:58:46;99369.22;;;5.64;100.00
70206;BME280;57593;55.896;37.396;2022-10-23T01:59:23;99366.28;;;5.65;100.00
70206;BME280;57593;55.896;37.396;2022-10-23T02:00:03;99363.38;;;5.67;100.00
70206;BME280;57593;55.896;37.396;2022-10-23T02:00:37;99359.63;;;5.59;100.00
70206;BME280;57593;55.896;37.396;2022-10-23T02:01:10;99356.22;;;5.58;100.00
70206;BME280;57593;55.896;37.396;2022-10-23T02:01:53;99365.94;;;5.58;100.00
70206;BME280;57593;55.896;37.396;2022-10-23T02:02:26;99361.88;;;5.52;100.00
70206;BME280;57593;55.896;37.396;2022-10-23T02:02:58;99364.38;;;5.57;100.00
70206;BME280;57593;55.896;37.396;2022-10-23T02:03:38;99366.25;;;5.56;100.00
70206;BME280;57593;55.896;37.396;2022-10-23T02:04:13;99363.13;;;5.54;100.00
70206;BME280;57593;55.896;37.396;2022-10-23T02:05:28;99358.47;;;5.51;100.00
70206;BME280;57593;55.896;37.396;2022-10-23T02:06:00;99362.66;;;5.52;100.00
70206;BME280;57593;55.896;37.396;2022-10-23T02:06:31;99355.69;;;5.48;100.00
70206;BME280;57593;55.896;37.396;2022-10-23T02:07:02;99353.19;;;5.43;100.00
70206;BME280;57593;55.896;37.396;2022-10-23T02:07:33;99358.78;;;5.50;100.00
70206;BME280;57593;55.896;37.396;2022-10-23T02:08:05;99352.00;;;5.49;100.00
70206;BME280;57593;55.896;37.396;2022-10-23T02:08:36;99352.19;;;5.52;100.00
70206;BME280;57593;55.896;37.396;2022-10-23T02:09:07;99354.22;;;5.55;100.00
70206;BME280;57593;55.896;37.396;2022-10-23T02:09:38;99355.28;;;5.54;100.00
70206;BME280;57593;55.896;37.396;2022-10-23T02:10:09;99352.00;;;5.49;100.00
70206;BME280;57593;55.896;37.396;2022-10-23T02:10:55;99351.88;;;5.54;100.00
70206;BME280;57593;55.896;37.396;2022-10-23T02:11:31;99350.03;;;5.54;100.00
70206;BME280;57593;55.896;37.396;2022-10-23T02:12:10;99351.72;;;5.50;100.00
70206;BME280;57593;55.896;37.396;2022-10-23T02:13:27;99341.69;;;5.52;100.00
70206;BME280;57593;55.896;37.396;2022-10-23T02:14:13;99346.75;;;5.49;100.00
70206;BME280;57593;55.896;37.396;2022-10-23T02:14:53;99351.03;;;5.45;100.00
70206;BME280;57593;55.896;37.396;2022-10-23T02:15:36;99348.41;;;5.45;100.00
70206;BME280;57593;55.896;37.396;2022-10-23T02:17:11;99352.38;;;5.42;100.00
70206;BME280;57593;55.896;37.396;2022-10-23T02:20:21;99351.63;;;5.42;100.00
70206;BME280;57593;55.896;37.396;2022-10-23T02:20:59;99343.94;;;5.45;100.00
70206;BME280;57593;55.896;37.396;2022-10-23T02:21:36;99346.09;;;5.43;100.00
70206;BME280;57593;55.896;37.396;2022-10-23T02:22:53;99348.88;;;5.47;100.00
70206;BME280;57593;55.896;37.396;2022-10-23T02:23:32;99349.69;;;5.47;100.00
70206;BME280;57593;55.896;37.396;2022-10-23T02:24:09;99351.50;;;5.47;100.00
70206;BME280;57593;55.896;37.396;2022-10-23T02:25:07;99357.53;;;5.47;100.00
70206;BME280;57593;55.896;37.396;2022-10-23T02:26:05;99351.50;;;5.47;100.00
70206;BME280;57593;55.896;37.396;2022-10-23T02:26:40;99349.47;;;5.44;100.00
70206;BME280;57593;55.896;37.396;2022-10-23T02:27:16;99352.09;;;5.44;100.00
70206;BME280;57593;55.896;37.396;2022-10-23T02:27:52;99353.66;;;5.45;100.00
70206;BME280;57593;55.896;37.396;2022-10-23T02:28:33;99347.66;;;5.44;100.00
70206;BME280;57593;55.896;37.396;2022-10-23T02:29:13;99339.59;;;5.40;100.00
70206;BME280;57593;55.896;37.396;2022-10-23T02:29:54;99335.44;;;5.39;100.00
70206;BME280;57593;55.896;37.396;2022-10-23T02:30:27;99347.44;;;5.40;100.00
70206;BME280;57593;55.896;37.396;2022-10-23T02:31:13;99343.28;;;5.39;100.00
70206;BME280;57593;55.896;37.396;2022-10-23T02:31:46;99345.13;;;5.39;100.00
70206;BME280;57593;55.896;37.396;2022-10-23T02:32:18;99344.81;;;5.40;100.00
70206;BME280;57593;55.896;37.396;2022-10-23T02:32:53;99346.00;;;5.34;100.00
70206;BME280;57593;55.896;37.396;2022-10-23T02:33:26;99347.75;;;5.39;100.00
70206;BME280;57593;55.896;37.396;2022-10-23T02:33:58;99349.41;;;5.35;100.00
70206;BME280;57593;55.896;37.396;2022-10-23T02:34:28;99339.41;;;5.37;100.00
70206;BME280;57593;55.896;37.396;2022-10-23T02:34:59;99348.25;;;5.41;100.00
70206;BME280;57593;55.896;37.396;2022-10-23T02:35:31;99344.34;;;5.38;100.00
70206;BME280;57593;55.896;37.396;2022-10-23T02:36:12;99342.72;;;5.43;100.00
70206;BME280;57593;55.896;37.396;2022-10-23T02:36:43;99347.75;;;5.39;100.00
70206;BME280;57593;55.896;37.396;2022-10-23T02:37:14;99342.31;;;5.35;100.00
70206;BME280;57593;55.896;37.396;2022-10-23T02:38:00;99346.38;;;5.42;100.00
70206;BME280;57593;55.896;37.396;2022-10-23T02:38:37;99346.78;;;5.35;100.00
70206;BME280;57593;55.896;37.396;2022-10-23T02:39:10;99343.97;;;5.31;100.00
70206;BME280;57593;55.896;37.396;2022-10-23T02:39:40;99343.88;;;5.36;100.00
70206;BME280;57593;55.896;37.396;2022-10-23T02:40:11;99346.69;;;5.40;100.00
70206;BME280;57593;55.896;37.396;2022-10-23T02:40:47;99351.16;;;5.39;100.00
70206;BME280;57593;55.896;37.396;2022-10-23T02:41:33;99340.47;;;5.36;100.00
70206;BME280;57593;55.896;37.396;2022-10-23T02:42:25;99344.66;;;5.37;100.00
70206;BME280;57593;55.896;37.396;2022-10-23T02:43:14;99340.19;;;5.37;100.00
70206;BME280;57593;55.896;37.396;2022-10-23T02:45:02;99334.59;;;5.30;100.00
70206;BME280;57593;55.896;37.396;2022-10-23T02:45:49;99346.72;;;5.26;100.00
70206;BME280;57593;55.896;37.396;2022-10-23T02:47:51;99337.91;;;5.22;100.00
70206;BME280;57593;55.896;37.396;2022-10-23T02:48:55;99335.94;;;5.28;100.00
70206;BME280;57593;55.896;37.396;2022-10-23T02:49:47;99334.09;;;5.28;100.00
70206;BME280;57593;55.896;37.396;2022-10-23T02:50:38;99332.38;;;5.24;100.00
70206;BME280;57593;55.896;37.396;2022-10-23T02:51:21;99339.31;;;5.28;100.00
70206;BME280;57593;55.896;37.396;2022-10-23T02:53:15;99332.66;;;5.22;100.00
70206;BME280;57593;55.896;37.396;2022-10-23T02:55:33;99330.34;;;5.20;100.00
70206;BME280;57593;55.896;37.396;2022-10-23T02:57:00;99328.59;;;5.16;100.00
70206;BME280;57593;55.896;37.396;2022-10-23T02:57:50;99322.78;;;5.19;100.00
70206;BME280;57593;55.896;37.396;2022-10-23T02:58:44;99336.16;;;5.17;100.00
70206;BME280;57593;55.896;37.396;2022-10-23T02:59:25;99328.91;;;5.14;100.00
70206;BME280;57593;55.896;37.396;2022-10-23T03:00:15;99330.63;;;5.19;100.00
70206;BME280;57593;55.896;37.396;2022-10-23T03:01:03;99325.78;;;5.12;100.00
70206;BME280;57593;55.896;37.396;2022-10-23T03:01:54;99319.19;;;5.15;100.00
70206;BME280;57593;55.896;37.396;2022-10-23T03:02:36;99321.34;;;5.13;100.00
70206;BME280;57593;55.896;37.396;2022-10-23T03:03:16;99317.94;;;5.12;100.00
70206;BME280;57593;55.896;37.396;2022-10-23T03:04:00;99322.00;;;5.18;100.00
70206;BME280;57593;55.896;37.396;2022-10-23T03:04:32;99320.16;;;5.19;100.00
70206;BME280;57593;55.896;37.396;2022-10-23T03:05:06;99315.53;;;5.16;100.00
70206;BME280;57593;55.896;37.396;2022-10-23T03:05:39;99314.94;;;5.19;100.00
70206;BME280;57593;55.896;37.396;2022-10-23T03:06:10;99319.09;;;5.20;100.00
70206;BME280;57593;55.896;37.396;2022-10-23T03:06:42;99316.75;;;5.18;100.00
70206;BME280;57593;55.896;37.396;2022-10-23T03:07:18;99324.81;;;5.22;100.00
70206;BME280;57593;55.896;37.396;2022-10-23T03:07:50;99316.00;;;5.18;100.00
70206;BME280;57593;55.896;37.396;2022-10-23T03:08:22;99319.09;;;5.20;100.00
70206;BME280;57593;55.896;37.396;2022-10-23T03:08:57;99325.88;;;5.21;100.00
70206;BME280;57593;55.896;37.396;2022-10-23T03:09:30;99326.34;;;5.23;100.00
70206;BME280;57593;55.896;37.396;2022-10-23T03:10:00;99321.22;;;5.18;100.00
70206;BME280;57593;55.896;37.396;2022-10-23T03:10:31;99312.59;;;5.17;100.00
70206;BME280;57593;55.896;37.396;2022-10-23T03:11:02;99316.75;;;5.18;100.00
70206;BME280;57593;55.896;37.396;2022-10-23T03:11:33;99310.47;;;5.19;100.00
70206;BME280;57593;55.896;37.396;2022-10-23T03:12:04;99313.38;;;5.18;100.00
70206;BME280;57593;55.896;37.396;2022-10-23T03:12:37;99311.22;;;5.20;100.00
70206;BME280;57593;55.896;37.396;2022-10-23T03:13:10;99304.94;;;5.21;100.00
70206;BME280;57593;55.896;37.396;2022-10-23T03:13:45;99311.59;;;5.27;100.00
70206;BME280;57593;55.896;37.396;2022-10-23T03:14:16;99307.53;;;5.21;100.00
70206;BME280;57593;55.896;37.396;2022-10-23T03:14:48;99309.69;;;5.19;100.00
70206;BME280;57593;55.896;37.396;2022-10-23T03:15:19;99312.19;;;5.24;100.00
70206;BME280;57593;55.896;37.396;2022-10-23T03:15:51;99308.59;;;5.20;100.00
70206;BME280;57593;55.896;37.396;2022-10-23T03:16:22;99305.97;;;5.20;100.00
70206;BME280;57593;55.896;37.396;2022-10-23T03:16:56;99303.75;;;5.27;100.00
70206;BME280;57593;55.896;37.396;2022-10-23T03:17:28;99309.28;;;5.26;100.00
70206;BME280;57593;55.896;37.396;2022-10-23T03:18:02;99305.69;;;5.21;100.00
70206;BME280;57593;55.896;37.396;2022-10-23T03:18:33;99301.91;;;5.28;100.00
70206;BME280;57593;55.896;37.396;2022-10-23T03:19:24;99304.81;;;5.26;100.00
70206;BME280;57593;55.896;37.396;2022-10-23T03:19:55;99304.63;;;5.22;100.00
70206;BME280;57593;55.896;37.396;2022-10-23T03:20:25;99299.22;;;5.19;100.00
70206;BME280;57593;55.896;37.396;2022-10-23T03:20:56;99300.00;;;5.19;100.00
70206;BME280;57593;55.896;37.396;2022-10-23T03:21:27;99302.72;;;5.14;100.00
70206;BME280;57593;55.896;37.396;2022-10-23T03:21:57;99295.16;;;5.13;100.00
70206;BME280;57593;55.896;37.396;2022-10-23T03:22:29;99294.75;;;5.19;100.00
70206;BME280;57593;55.896;37.396;2022-10-23T03:23:00;99293.69;;;5.20;100.00
70206;BME280;57593;55.896;37.396;2022-10-23T03:23:30;99288.63;;;5.24;100.00
70206;BME280;57593;55.896;37.396;2022-10-23T03:24:03;99300.66;;;5.25;100.00
70206;BME280;57593;55.896;37.396;2022-10-23T03:24:42;99301.25;;;5.22;100.00
70206;BME280;57593;55.896;37.396;2022-10-23T03:25:13;99295.22;;;5.21;100.00
70206;BME280;57593;55.896;37.396;2022-10-23T03:25:44;99297.78;;;5.13;100.00
70206;BME280;57593;55.896;37.396;2022-10-23T03:26:25;99297.06;;;5.21;100.00
70206;BME280;57593;55.896;37.396;2022-10-23T03:26:56;99294.91;;;5.23;100.00
70206;BME280;57593;55.896;37.396;2022-10-23T03:27:33;99293.88;;;5.24;100.00
70206;BME280;57593;55.896;37.396;2022-10-23T03:28:07;99284.41;;;5.14;100.00
70206;BME280;57593;55.896;37.396;2022-10-23T03:28:39;99281.47;;;5.16;100.00
70206;BME280;57593;55.896;37.396;2022-10-23T03:29:10;99293.47;;;5.17;100.00
70206;BME280;57593;55.896;37.396;2022-10-23T03:29:46;99297.38;;;5.19;100.00
70206;BME280;57593;55.896;37.396;2022-10-23T03:30:18;99291.97;;;5.16;100.00
70206;BME280;57593;55.896;37.396;2022-10-23T03:30:53;99292.16;;;5.06;100.00
70206;BME280;57593;55.896;37.396;2022-10-23T03:31:24;99284.31;;;5.06;100.00
70206;BME280;57593;55.896;37.396;2022-10-23T03:32:00;99292.25;;;5.14;100.00